sensor_id;sensor_type;location;lat;lon;timestamp;P1;durP1;ratioP1;P2;durP2;ratioP2
26820;SDS011;37186;51.394;5.454;2022-10-31T00:00:56;10.75;;;10.45;;
26820;SDS011;37186;51.394;5.454;2022-10-31T00:03:57;10.80;;;10.50;;
26820;SDS011;37186;51.394;5.454;2022-10-31T00:06:58;10.57;;;10.27;;
26820;SDS011;37186;51.394;5.454;2022-10-31T00:09:58;11.00;;;10.70;;
26820;SDS011;37186;51.394;5.454;2022-10-31T00:12:59;11.00;;;10.70;;
26820;SDS011;37186;51.394;5.454;2022-10-31T00:15:59;10.80;;;10.50;;
26820;SDS011;37186;51.394;5.454;2022-10-31T00:19:02;11.70;;;11.40;;
26820;SDS011;37186;51.394;5.454;2022-10-31T00:22:03;11.35;;;11.05;;
26820;SDS011;37186;51.394;5.454;2022-10-31T00:25:04;11.07;;;10.77;;
26820;SDS011;37186;51.394;5.454;2022-10-31T00:28:05;11.45;;;11.15;;
26820;SDS011;37186;51.394;5.454;2022-10-31T00:31:07;11.45;;;11.15;;
26820;SDS011;37186;51.394;5.454;2022-10-31T00:34:09;11.90;;;11.55;;
26820;SDS011;37186;51.394;5.454;2022-10-31T00:37:09;12.68;;;12.27;;
26820;SDS011;37186;51.394;5.454;2022-10-31T00:40:10;11.52;;;11.23;;
26820;SDS011;37186;51.394;5.454;2022-10-31T00:43:11;12.02;;;11.65;;
26820;SDS011;37186;51.394;5.454;2022-10-31T00:46:12;11.77;;;11.48;;
26820;SDS011;37186;51.394;5.454;2022-10-31T00:49:13;12.43;;;12.02;;
26820;SDS011;37186;51.394;5.454;2022-10-31T00:52:13;11.70;;;11.40;;
26820;SDS011;37186;51.394;5.454;2022-10-31T00:55:14;12.00;;;11.63;;
26820;SDS011;37186;51.394;5.454;2022-10-31T00:58:14;12.38;;;11.98;;
26820;SDS011;37186;51.394;5.454;2022-10-31T01:01:15;11.70;;;11.40;;
26820;SDS011;37186;51.394;5.454;2022-10-31T01:04:15;11.93;;;11.60;;
26820;SDS011;37186;51.394;5.454;2022-10-31T01:07:16;11.98;;;11.57;;
26820;SDS011;37186;51.394;5.454;2022-10-31T01:10:16;11.30;;;11.00;;
26820;SDS011;37186;51.394;5.454;2022-10-31T01:13:17;12.15;;;11.75;;
26820;SDS011;37186;51.394;5.454;2022-10-31T01:16:19;12.27;;;11.88;;
26820;SDS011;37186;51.394;5.454;2022-10-31T01:19:22;11.23;;;10.93;;
26820;SDS011;37186;51.394;5.454;2022-10-31T01:22:22;12.15;;;11.75;;
26820;SDS011;37186;51.394;5.454;2022-10-31T01:25:23;12.98;;;12.57;;
26820;SDS011;37186;51.394;5.454;2022-10-31T01:28:23;12.63;;;12.23;;
26820;SDS011;37186;51.394;5.454;2022-10-31T01:31:25;11.80;;;11.50;;
26820;SDS011;37186;51.394;5.454;2022-10-31T01:34:30;12.30;;;11.90;;
26820;SDS011;37186;51.394;5.454;2022-10-31T01:37:31;11.45;;;11.15;;
26820;SDS011;37186;51.394;5.454;2022-10-31T01:40:31;11.80;;;11.48;;
26820;SDS011;37186;51.394;5.454;2022-10-31T01:46:57;11.38;;;11.07;;
26820;SDS011;37186;51.394;5.454;2022-10-31T01:50:02;11.00;;;10.70;;
26820;SDS011;37186;51.394;5.454;2022-10-31T01:53:06;11.93;;;11.57;;
26820;SDS011;37186;51.394;5.454;2022-10-31T01:56:09;12.52;;;12.13;;
26820;SDS011;37186;51.394;5.454;2022-10-31T01:59:11;12.70;;;12.30;;
26820;SDS011;37186;51.394;5.454;2022-10-31T02:02:15;12.30;;;11.90;;
26820;SDS011;37186;51.394;5.454;2022-10-31T02:05:20;12.52;;;12.13;;
26820;SDS011;37186;51.394;5.454;2022-10-31T02:08:28;11.57;;;11.27;;
26820;SDS011;37186;51.394;5.454;2022-10-31T02:11:33;12.27;;;11.88;;
26820;SDS011;37186;51.394;5.454;2022-10-31T02:14:35;12.15;;;11.75;;
26820;SDS011;37186;51.394;5.454;2022-10-31T02:17:37;11.32;;;11.02;;
26820;SDS011;37186;51.394;5.454;2022-10-31T02:30:27;11.65;;;11.35;;
26820;SDS011;37186;51.394;5.454;2022-10-31T02:36:40;11.35;;;11.05;;
26820;SDS011;37186;51.394;5.454;2022-10-31T02:43:43;12.50;;;12.10;;
26820;SDS011;37186;51.394;5.454;2022-10-31T02:46:28;12.43;;;12.02;;
26820;SDS011;37186;51.394;5.454;2022-10-31T02:49:45;13.93;;;13.52;;
26820;SDS011;37186;51.394;5.454;2022-10-31T02:52:53;14.43;;;14.00;;
26820;SDS011;37186;51.394;5.454;2022-10-31T02:56:08;14.07;;;13.68;;
26820;SDS011;37186;51.394;5.454;2022-10-31T02:59:14;14.05;;;13.65;;
26820;SDS011;37186;51.394;5.454;2022-10-31T03:02:22;14.27;;;13.88;;
26820;SDS011;37186;51.394;5.454;2022-10-31T03:15:29;15.93;;;15.43;;
26820;SDS011;37186;51.394;5.454;2022-10-31T03:18:34;15.88;;;15.38;;
26820;SDS011;37186;51.394;5.454;2022-10-31T03:21:44;15.55;;;15.05;;
26820;SDS011;37186;51.394;5.454;2022-10-31T03:24:48;16.00;;;15.50;;
26820;SDS011;37186;51.394;5.454;2022-10-31T03:27:51;16.65;;;16.15;;
26820;SDS011;37186;51.394;5.454;2022-10-31T03:30:53;16.10;;;15.60;;
26820;SDS011;37186;51.394;5.454;2022-10-31T03:33:55;15.55;;;15.05;;
26820;SDS011;37186;51.394;5.454;2022-10-31T03:36:59;15.30;;;14.80;;
26820;SDS011;37186;51.394;5.454;2022-10-31T03:40:03;15.13;;;14.63;;
26820;SDS011;37186;51.394;5.454;2022-10-31T03:43:08;15.73;;;15.23;;
26820;SDS011;37186;51.394;5.454;2022-10-31T03:46:17;14.70;;;14.25;;
26820;SDS011;37186;51.394;5.454;2022-10-31T03:49:18;16.23;;;15.73;;
26820;SDS011;37186;51.394;5.454;2022-10-31T03:55:31;14.68;;;14.23;;
26820;SDS011;37186;51.394;5.454;2022-10-31T03:58:55;14.65;;;14.23;;
26820;SDS011;37186;51.394;5.454;2022-10-31T04:02:05;15.70;;;15.20;;
26820;SDS011;37186;51.394;5.454;2022-10-31T04:05:08;15.88;;;15.38;;
26820;SDS011;37186;51.394;5.454;2022-10-31T04:08:12;17.10;;;16.58;;
26820;SDS011;37186;51.394;5.454;2022-10-31T04:11:17;16.83;;;16.33;;
26820;SDS011;37186;51.394;5.454;2022-10-31T04:14:23;16.98;;;16.48;;
26820;SDS011;37186;51.394;5.454;2022-10-31T04:17:27;17.50;;;16.95;;
26820;SDS011;37186;51.394;5.454;2022-10-31T04:20:37;16.00;;;15.50;;
26820;SDS011;37186;51.394;5.454;2022-10-31T04:23:39;18.25;;;17.65;;
26820;SDS011;37186;51.394;5.454;2022-10-31T04:26:40;19.83;;;19.20;;
26820;SDS011;37186;51.394;5.454;2022-10-31T04:29:40;18.27;;;17.67;;
26820;SDS011;37186;51.394;5.454;2022-10-31T04:32:41;18.20;;;17.60;;
26820;SDS011;37186;51.394;5.454;2022-10-31T04:35:41;17.35;;;16.83;;
26820;SDS011;37186;51.394;5.454;2022-10-31T04:38:42;17.25;;;16.73;;
26820;SDS011;37186;51.394;5.454;2022-10-31T04:41:42;17.75;;;17.17;;
26820;SDS011;37186;51.394;5.454;2022-10-31T04:44:43;16.00;;;15.50;;
26820;SDS011;37186;51.394;5.454;2022-10-31T04:47:43;16.08;;;15.57;;
26820;SDS011;37186;51.394;5.454;2022-10-31T04:50:44;15.73;;;15.23;;
26820;SDS011;37186;51.394;5.454;2022-10-31T04:53:44;15.88;;;15.38;;
26820;SDS011;37186;51.394;5.454;2022-10-31T04:56:45;15.73;;;15.23;;
26820;SDS011;37186;51.394;5.454;2022-10-31T04:59:45;16.00;;;15.50;;
26820;SDS011;37186;51.394;5.454;2022-10-31T05:02:49;15.05;;;14.55;;
26820;SDS011;37186;51.394;5.454;2022-10-31T05:05:52;15.38;;;14.88;;
26820;SDS011;37186;51.394;5.454;2022-10-31T05:08:52;15.25;;;14.75;;
26820;SDS011;37186;51.394;5.454;2022-10-31T05:11:53;16.73;;;16.23;;
26820;SDS011;37186;51.394;5.454;2022-10-31T05:14:53;14.75;;;14.27;;
26820;SDS011;37186;51.394;5.454;2022-10-31T05:17:54;15.02;;;14.52;;
26820;SDS011;37186;51.394;5.454;2022-10-31T05:20:55;14.90;;;14.40;;
26820;SDS011;37186;51.394;5.454;2022-10-31T05:23:56;14.70;;;14.30;;
26820;SDS011;37186;51.394;5.454;2022-10-31T05:26:56;13.98;;;13.57;;
26820;SDS011;37186;51.394;5.454;2022-10-31T05:29:57;13.40;;;13.00;;
26820;SDS011;37186;51.394;5.454;2022-10-31T05:32:57;13.52;;;13.13;;
26820;SDS011;37186;51.394;5.454;2022-10-31T05:35:58;13.15;;;12.75;;
26820;SDS011;37186;51.394;5.454;2022-10-31T05:38:59;12.32;;;11.93;;
26820;SDS011;37186;51.394;5.454;2022-10-31T05:41:59;12.20;;;11.80;;
26820;SDS011;37186;51.394;5.454;2022-10-31T05:45:00;12.02;;;11.65;;
26820;SDS011;37186;51.394;5.454;2022-10-31T05:48:00;11.95;;;11.60;;
26820;SDS011;37186;51.394;5.454;2022-10-31T05:51:01;11.77;;;11.43;;
26820;SDS011;37186;51.394;5.454;2022-10-31T05:54:02;11.30;;;11.00;;
26820;SDS011;37186;51.394;5.454;2022-10-31T05:57:03;11.73;;;11.40;;
26820;SDS011;37186;51.394;5.454;2022-10-31T06:00:04;11.20;;;10.90;;
26820;SDS011;37186;51.394;5.454;2022-10-31T06:03:06;11.20;;;10.90;;
26820;SDS011;37186;51.394;5.454;2022-10-31T06:06:07;11.40;;;11.10;;
26820;SDS011;37186;51.394;5.454;2022-10-31T06:09:08;11.33;;;11.03;;
26820;SDS011;37186;51.394;5.454;2022-10-31T06:12:09;11.50;;;11.20;;
26820;SDS011;37186;51.394;5.454;2022-10-31T06:15:09;10.07;;;9.77;;
26820;SDS011;37186;51.394;5.454;2022-10-31T06:18:10;10.90;;;10.60;;
26820;SDS011;37186;51.394;5.454;2022-10-31T06:21:10;10.80;;;10.50;;
26820;SDS011;37186;51.394;5.454;2022-10-31T06:24:11;10.77;;;10.47;;
26820;SDS011;37186;51.394;5.454;2022-10-31T06:27:12;11.10;;;10.80;;
26820;SDS011;37186;51.394;5.454;2022-10-31T06:30:12;11.60;;;11.30;;
26820;SDS011;37186;51.394;5.454;2022-10-31T06:33:13;11.87;;;11.50;;
26820;SDS011;37186;51.394;5.454;2022-10-31T06:36:13;11.10;;;10.80;;
26820;SDS011;37186;51.394;5.454;2022-10-31T06:39:14;11.73;;;11.43;;
26820;SDS011;37186;51.394;5.454;2022-10-31T06:42:15;10.88;;;10.57;;
26820;SDS011;37186;51.394;5.454;2022-10-31T06:45:16;10.80;;;10.50;;
26820;SDS011;37186;51.394;5.454;2022-10-31T06:48:16;11.30;;;11.00;;
26820;SDS011;37186;51.394;5.454;2022-10-31T06:51:17;11.30;;;11.00;;
26820;SDS011;37186;51.394;5.454;2022-10-31T06:54:17;11.50;;;11.20;;
26820;SDS011;37186;51.394;5.454;2022-10-31T06:57:18;11.65;;;11.35;;
26820;SDS011;37186;51.394;5.454;2022-10-31T07:00:19;10.90;;;10.60;;
26820;SDS011;37186;51.394;5.454;2022-10-31T07:03:19;11.32;;;11.02;;
26820;SDS011;37186;51.394;5.454;2022-10-31T07:06:20;11.73;;;11.43;;
26820;SDS011;37186;51.394;5.454;2022-10-31T07:09:20;11.70;;;11.40;;
26820;SDS011;37186;51.394;5.454;2022-10-31T07:12:21;11.60;;;11.30;;
26820;SDS011;37186;51.394;5.454;2022-10-31T07:15:22;11.90;;;11.52;;
26820;SDS011;37186;51.394;5.454;2022-10-31T07:18:23;11.48;;;11.18;;
26820;SDS011;37186;51.394;5.454;2022-10-31T07:21:23;12.10;;;11.70;;
26820;SDS011;37186;51.394;5.454;2022-10-31T07:24:24;11.90;;;11.52;;
26820;SDS011;37186;51.394;5.454;2022-10-31T07:27:24;11.52;;;11.23;;
26820;SDS011;37186;51.394;5.454;2022-10-31T07:30:25;10.93;;;10.63;;
26820;SDS011;37186;51.394;5.454;2022-10-31T07:33:25;11.50;;;11.20;;
26820;SDS011;37186;51.394;5.454;2022-10-31T07:36:26;11.23;;;10.93;;
26820;SDS011;37186;51.394;5.454;2022-10-31T07:39:27;11.30;;;11.00;;
26820;SDS011;37186;51.394;5.454;2022-10-31T07:42:27;10.68;;;10.38;;
26820;SDS011;37186;51.394;5.454;2022-10-31T07:45:28;11.40;;;11.10;;
26820;SDS011;37186;51.394;5.454;2022-10-31T07:48:28;11.37;;;11.07;;
26820;SDS011;37186;51.394;5.454;2022-10-31T07:51:29;11.80;;;11.50;;
26820;SDS011;37186;51.394;5.454;2022-10-31T07:54:29;12.30;;;11.90;;
26820;SDS011;37186;51.394;5.454;2022-10-31T07:57:30;11.20;;;10.90;;
26820;SDS011;37186;51.394;5.454;2022-10-31T08:00:31;11.40;;;11.10;;
26820;SDS011;37186;51.394;5.454;2022-10-31T08:03:33;11.47;;;11.17;;
26820;SDS011;37186;51.394;5.454;2022-10-31T08:06:33;12.60;;;12.20;;
26820;SDS011;37186;51.394;5.454;2022-10-31T08:09:34;11.52;;;11.23;;
26820;SDS011;37186;51.394;5.454;2022-10-31T08:12:34;11.95;;;11.55;;
26820;SDS011;37186;51.394;5.454;2022-10-31T08:15:35;11.03;;;10.73;;
26820;SDS011;37186;51.394;5.454;2022-10-31T08:18:39;12.10;;;11.70;;
26820;SDS011;37186;51.394;5.454;2022-10-31T08:21:39;13.77;;;13.38;;
26820;SDS011;37186;51.394;5.454;2022-10-31T08:24:40;13.77;;;13.37;;
26820;SDS011;37186;51.394;5.454;2022-10-31T08:27:40;15.73;;;15.23;;
26820;SDS011;37186;51.394;5.454;2022-10-31T08:30:41;17.20;;;16.70;;
26820;SDS011;37186;51.394;5.454;2022-10-31T08:33:41;17.05;;;16.55;;
26820;SDS011;37186;51.394;5.454;2022-10-31T08:36:42;17.80;;;17.23;;
26820;SDS011;37186;51.394;5.454;2022-10-31T08:39:47;16.63;;;16.13;;
26820;SDS011;37186;51.394;5.454;2022-10-31T08:42:54;17.98;;;17.38;;
26820;SDS011;37186;51.394;5.454;2022-10-31T08:45:56;17.15;;;16.65;;
26820;SDS011;37186;51.394;5.454;2022-10-31T08:48:56;17.55;;;17.00;;
26820;SDS011;37186;51.394;5.454;2022-10-31T08:51:57;18.65;;;18.05;;
26820;SDS011;37186;51.394;5.454;2022-10-31T08:54:57;17.00;;;16.50;;
26820;SDS011;37186;51.394;5.454;2022-10-31T08:57:58;15.88;;;15.38;;
26820;SDS011;37186;51.394;5.454;2022-10-31T09:00:59;16.13;;;15.63;;
26820;SDS011;37186;51.394;5.454;2022-10-31T09:04:00;14.93;;;14.43;;
26820;SDS011;37186;51.394;5.454;2022-10-31T09:07:01;16.42;;;15.93;;
26820;SDS011;37186;51.394;5.454;2022-10-31T09:10:01;16.48;;;15.98;;
26820;SDS011;37186;51.394;5.454;2022-10-31T09:13:07;16.13;;;15.63;;
26820;SDS011;37186;51.394;5.454;2022-10-31T09:16:12;15.45;;;14.95;;
26820;SDS011;37186;51.394;5.454;2022-10-31T09:19:13;15.85;;;15.35;;
26820;SDS011;37186;51.394;5.454;2022-10-31T09:22:13;17.00;;;16.50;;
26820;SDS011;37186;51.394;5.454;2022-10-31T09:25:14;15.43;;;14.93;;
26820;SDS011;37186;51.394;5.454;2022-10-31T09:28:15;14.25;;;13.85;;
26820;SDS011;37186;51.394;5.454;2022-10-31T09:31:18;13.65;;;13.25;;
26820;SDS011;37186;51.394;5.454;2022-10-31T09:34:18;13.23;;;12.82;;
26820;SDS011;37186;51.394;5.454;2022-10-31T09:37:19;12.73;;;12.32;;
26820;SDS011;37186;51.394;5.454;2022-10-31T09:40:19;11.32;;;11.02;;
26820;SDS011;37186;51.394;5.454;2022-10-31T09:43:32;12.15;;;11.75;;
26820;SDS011;37186;51.394;5.454;2022-10-31T09:50:21;10.77;;;10.48;;
26820;SDS011;37186;51.394;5.454;2022-10-31T09:53:29;10.75;;;10.45;;
26820;SDS011;37186;51.394;5.454;2022-10-31T09:56:49;10.55;;;10.25;;
26820;SDS011;37186;51.394;5.454;2022-10-31T09:59:50;11.48;;;11.18;;
26820;SDS011;37186;51.394;5.454;2022-10-31T10:02:52;10.50;;;10.20;;
26820;SDS011;37186;51.394;5.454;2022-10-31T10:06:14;11.00;;;10.70;;
26820;SDS011;37186;51.394;5.454;2022-10-31T10:09:15;11.05;;;10.75;;
26820;SDS011;37186;51.394;5.454;2022-10-31T10:12:28;11.20;;;10.90;;
26820;SDS011;37186;51.394;5.454;2022-10-31T10:27:22;10.63;;;10.32;;
26820;SDS011;37186;51.394;5.454;2022-10-31T10:29:58;10.82;;;10.52;;
26820;SDS011;37186;51.394;5.454;2022-10-31T10:33:04;10.95;;;10.65;;
26820;SDS011;37186;51.394;5.454;2022-10-31T10:36:16;12.00;;;11.60;;
26820;SDS011;37186;51.394;5.454;2022-10-31T10:39:29;11.73;;;11.43;;
26820;SDS011;37186;51.394;5.454;2022-10-31T10:42:40;10.55;;;10.25;;
26820;SDS011;37186;51.394;5.454;2022-10-31T10:49:40;9.68;;;9.38;;
26820;SDS011;37186;51.394;5.454;2022-10-31T10:56:24;10.05;;;9.75;;
26820;SDS011;37186;51.394;5.454;2022-10-31T10:59:30;9.85;;;9.55;;
26820;SDS011;37186;51.394;5.454;2022-10-31T11:02:32;9.77;;;9.48;;
26820;SDS011;37186;51.394;5.454;2022-10-31T11:05:41;9.63;;;9.32;;
26820;SDS011;37186;51.394;5.454;2022-10-31T11:08:58;10.35;;;10.05;;
26820;SDS011;37186;51.394;5.454;2022-10-31T11:12:14;10.38;;;10.07;;
26820;SDS011;37186;51.394;5.454;2022-10-31T11:15:26;9.52;;;9.23;;
26820;SDS011;37186;51.394;5.454;2022-10-31T11:18:32;9.95;;;9.65;;
26820;SDS011;37186;51.394;5.454;2022-10-31T11:21:36;9.27;;;8.98;;
26820;SDS011;37186;51.394;5.454;2022-10-31T11:24:38;10.45;;;10.15;;
26820;SDS011;37186;51.394;5.454;2022-10-31T11:27:40;10.18;;;9.88;;
26820;SDS011;37186;51.394;5.454;2022-10-31T11:30:48;10.55;;;10.25;;
26820;SDS011;37186;51.394;5.454;2022-10-31T11:33:57;10.98;;;10.68;;
26820;SDS011;37186;51.394;5.454;2022-10-31T11:37:03;13.27;;;12.88;;
26820;SDS011;37186;51.394;5.454;2022-10-31T11:40:18;13.18;;;12.77;;
26820;SDS011;37186;51.394;5.454;2022-10-31T11:43:20;15.05;;;14.57;;
26820;SDS011;37186;51.394;5.454;2022-10-31T11:46:24;16.23;;;15.73;;
26820;SDS011;37186;51.394;5.454;2022-10-31T11:49:47;16.42;;;15.93;;
26820;SDS011;37186;51.394;5.454;2022-10-31T11:52:52;16.38;;;15.88;;
26820;SDS011;37186;51.394;5.454;2022-10-31T11:56:04;16.40;;;15.90;;
26820;SDS011;37186;51.394;5.454;2022-10-31T11:59:18;14.15;;;13.75;;
26820;SDS011;37186;51.394;5.454;2022-10-31T12:02:22;15.45;;;14.95;;
26820;SDS011;37186;51.394;5.454;2022-10-31T12:05:25;14.50;;;14.10;;
26820;SDS011;37186;51.394;5.454;2022-10-31T12:08:35;13.90;;;13.50;;
26820;SDS011;37186;51.394;5.454;2022-10-31T12:11:42;12.02;;;11.65;;
26820;SDS011;37186;51.394;5.454;2022-10-31T12:15:00;11.55;;;11.25;;
26820;SDS011;37186;51.394;5.454;2022-10-31T12:25:10;13.73;;;13.32;;
26820;SDS011;37186;51.394;5.454;2022-10-31T12:31:39;15.55;;;15.05;;
26820;SDS011;37186;51.394;5.454;2022-10-31T12:50:56;15.55;;;15.05;;
26820;SDS011;37186;51.394;5.454;2022-10-31T12:57:48;15.25;;;14.75;;
26820;SDS011;37186;51.394;5.454;2022-10-31T13:01:07;15.80;;;15.30;;
26820;SDS011;37186;51.394;5.454;2022-10-31T13:07:41;15.25;;;14.75;;
26820;SDS011;37186;51.394;5.454;2022-10-31T13:11:09;15.68;;;15.18;;
26820;SDS011;37186;51.394;5.454;2022-10-31T13:14:29;18.25;;;17.65;;
26820;SDS011;37186;51.394;5.454;2022-10-31T13:17:38;18.05;;;17.45;;
26820;SDS011;37186;51.394;5.454;2022-10-31T13:20:43;18.83;;;18.23;;
26820;SDS011;37186;51.394;5.454;2022-10-31T13:23:47;19.10;;;18.50;;
26820;SDS011;37186;51.394;5.454;2022-10-31T13:26:52;19.20;;;18.60;;
26820;SDS011;37186;51.394;5.454;2022-10-31T13:30:03;19.25;;;18.65;;
26820;SDS011;37186;51.394;5.454;2022-10-31T13:33:13;16.38;;;15.88;;
26820;SDS011;37186;51.394;5.454;2022-10-31T13:36:20;16.17;;;15.68;;
26820;SDS011;37186;51.394;5.454;2022-10-31T13:43:05;14.70;;;14.25;;
26820;SDS011;37186;51.394;5.454;2022-10-31T13:49:36;15.15;;;14.65;;
26820;SDS011;37186;51.394;5.454;2022-10-31T13:52:38;15.95;;;15.45;;
26820;SDS011;37186;51.394;5.454;2022-10-31T13:55:41;16.65;;;16.15;;
26820;SDS011;37186;51.394;5.454;2022-10-31T13:59:28;14.35;;;13.95;;
26820;SDS011;37186;51.394;5.454;2022-10-31T14:02:15;13.05;;;12.65;;
26820;SDS011;37186;51.394;5.454;2022-10-31T14:05:22;13.07;;;12.68;;
26820;SDS011;37186;51.394;5.454;2022-10-31T14:08:26;12.57;;;12.18;;
26820;SDS011;37186;51.394;5.454;2022-10-31T14:11:29;13.98;;;13.57;;
26820;SDS011;37186;51.394;5.454;2022-10-31T14:14:32;15.25;;;14.75;;
26820;SDS011;37186;51.394;5.454;2022-10-31T14:17:44;14.43;;;14.02;;
26820;SDS011;37186;51.394;5.454;2022-10-31T14:20:50;14.40;;;13.98;;
26820;SDS011;37186;51.394;5.454;2022-10-31T14:23:51;15.13;;;14.63;;
26820;SDS011;37186;51.394;5.454;2022-10-31T14:26:53;14.60;;;14.18;;
26820;SDS011;37186;51.394;5.454;2022-10-31T14:30:12;13.40;;;13.00;;
26820;SDS011;37186;51.394;5.454;2022-10-31T14:33:17;14.20;;;13.80;;
26820;SDS011;37186;51.394;5.454;2022-10-31T14:36:36;13.65;;;13.25;;
26820;SDS011;37186;51.394;5.454;2022-10-31T14:46:33;13.38;;;12.98;;
26820;SDS011;37186;51.394;5.454;2022-10-31T14:53:12;14.75;;;14.30;;
26820;SDS011;37186;51.394;5.454;2022-10-31T14:56:25;15.93;;;15.43;;
26820;SDS011;37186;51.394;5.454;2022-10-31T14:59:29;18.42;;;17.83;;
26820;SDS011;37186;51.394;5.454;2022-10-31T15:02:34;16.42;;;15.93;;
26820;SDS011;37186;51.394;5.454;2022-10-31T15:05:59;15.50;;;15.00;;
26820;SDS011;37186;51.394;5.454;2022-10-31T15:09:05;13.93;;;13.52;;
26820;SDS011;37186;51.394;5.454;2022-10-31T15:15:32;11.90;;;11.55;;
26820;SDS011;37186;51.394;5.454;2022-10-31T15:18:33;12.55;;;12.15;;
26820;SDS011;37186;51.394;5.454;2022-10-31T15:21:34;13.63;;;13.23;;
26820;SDS011;37186;51.394;5.454;2022-10-31T15:24:39;13.82;;;13.43;;
26820;SDS011;37186;51.394;5.454;2022-10-31T15:27:39;12.35;;;11.95;;
26820;SDS011;37186;51.394;5.454;2022-10-31T15:30:48;12.40;;;12.00;;
26820;SDS011;37186;51.394;5.454;2022-10-31T15:33:54;12.13;;;11.73;;
26820;SDS011;37186;51.394;5.454;2022-10-31T15:36:57;13.35;;;12.95;;
26820;SDS011;37186;51.394;5.454;2022-10-31T15:40:05;13.35;;;12.95;;
26820;SDS011;37186;51.394;5.454;2022-10-31T15:43:13;12.43;;;12.02;;
26820;SDS011;37186;51.394;5.454;2022-10-31T15:46:15;12.70;;;12.30;;
26820;SDS011;37186;51.394;5.454;2022-10-31T15:49:26;11.65;;;11.32;;
26820;SDS011;37186;51.394;5.454;2022-10-31T15:52:42;11.10;;;10.80;;
26820;SDS011;37186;51.394;5.454;2022-10-31T15:55:46;10.55;;;10.25;;
26820;SDS011;37186;51.394;5.454;2022-10-31T15:58:53;11.70;;;11.38;;
26820;SDS011;37186;51.394;5.454;2022-10-31T16:02:00;10.70;;;10.40;;
26820;SDS011;37186;51.394;5.454;2022-10-31T16:05:14;10.25;;;9.95;;
26820;SDS011;37186;51.394;5.454;2022-10-31T16:11:37;9.70;;;9.40;;
26820;SDS011;37186;51.394;5.454;2022-10-31T16:14:38;10.23;;;9.93;;
26820;SDS011;37186;51.394;5.454;2022-10-31T16:17:42;9.60;;;9.30;;
26820;SDS011;37186;51.394;5.454;2022-10-31T16:20:49;9.98;;;9.68;;
26820;SDS011;37186;51.394;5.454;2022-10-31T16:23:55;10.35;;;10.05;;
26820;SDS011;37186;51.394;5.454;2022-10-31T16:27:03;9.95;;;9.65;;
26820;SDS011;37186;51.394;5.454;2022-10-31T16:33:31;10.32;;;10.02;;
26820;SDS011;37186;51.394;5.454;2022-10-31T16:36:36;12.05;;;11.68;;
26820;SDS011;37186;51.394;5.454;2022-10-31T16:39:39;11.85;;;11.50;;
26820;SDS011;37186;51.394;5.454;2022-10-31T16:42:39;12.10;;;11.70;;
26820;SDS011;37186;51.394;5.454;2022-10-31T16:45:48;12.30;;;11.90;;
26820;SDS011;37186;51.394;5.454;2022-10-31T16:48:50;12.73;;;12.32;;
26820;SDS011;37186;51.394;5.454;2022-10-31T16:51:51;12.52;;;12.13;;
26820;SDS011;37186;51.394;5.454;2022-10-31T16:54:52;12.10;;;11.70;;
26820;SDS011;37186;51.394;5.454;2022-10-31T16:57:55;12.05;;;11.68;;
26820;SDS011;37186;51.394;5.454;2022-10-31T17:00:56;13.45;;;13.05;;
26820;SDS011;37186;51.394;5.454;2022-10-31T17:03:57;12.25;;;11.85;;
26820;SDS011;37186;51.394;5.454;2022-10-31T17:06:58;12.23;;;11.82;;
26820;SDS011;37186;51.394;5.454;2022-10-31T17:09:58;12.20;;;11.80;;
26820;SDS011;37186;51.394;5.454;2022-10-31T17:12:59;11.57;;;11.27;;
26820;SDS011;37186;51.394;5.454;2022-10-31T17:16:02;12.23;;;11.82;;
26820;SDS011;37186;51.394;5.454;2022-10-31T17:19:03;11.65;;;11.35;;
26820;SDS011;37186;51.394;5.454;2022-10-31T17:22:04;11.55;;;11.25;;
26820;SDS011;37186;51.394;5.454;2022-10-31T17:25:04;11.63;;;11.32;;
26820;SDS011;37186;51.394;5.454;2022-10-31T17:28:10;12.20;;;11.80;;
26820;SDS011;37186;51.394;5.454;2022-10-31T17:31:22;11.93;;;11.57;;
26820;SDS011;37186;51.394;5.454;2022-10-31T17:34:26;11.57;;;11.27;;
26820;SDS011;37186;51.394;5.454;2022-10-31T17:37:27;11.98;;;11.60;;
26820;SDS011;37186;51.394;5.454;2022-10-31T17:40:27;11.02;;;10.73;;
26820;SDS011;37186;51.394;5.454;2022-10-31T17:43:28;12.23;;;11.82;;
26820;SDS011;37186;51.394;5.454;2022-10-31T17:46:28;12.02;;;11.63;;
26820;SDS011;37186;51.394;5.454;2022-10-31T17:49:29;12.40;;;12.00;;
26820;SDS011;37186;51.394;5.454;2022-10-31T17:52:29;12.90;;;12.50;;
26820;SDS011;37186;51.394;5.454;2022-10-31T17:55:30;13.20;;;12.80;;
26820;SDS011;37186;51.394;5.454;2022-10-31T17:58:31;12.38;;;11.98;;
26820;SDS011;37186;51.394;5.454;2022-10-31T18:01:33;12.70;;;12.30;;
26820;SDS011;37186;51.394;5.454;2022-10-31T18:04:34;13.20;;;12.80;;
26820;SDS011;37186;51.394;5.454;2022-10-31T18:07:35;13.95;;;13.55;;
26820;SDS011;37186;51.394;5.454;2022-10-31T18:10:37;13.50;;;13.10;;
26820;SDS011;37186;51.394;5.454;2022-10-31T18:13:38;13.98;;;13.57;;
26820;SDS011;37186;51.394;5.454;2022-10-31T18:16:38;14.07;;;13.68;;
26820;SDS011;37186;51.394;5.454;2022-10-31T18:19:39;13.02;;;12.63;;
26820;SDS011;37186;51.394;5.454;2022-10-31T18:22:39;14.27;;;13.88;;
26820;SDS011;37186;51.394;5.454;2022-10-31T18:25:40;13.48;;;13.07;;
26820;SDS011;37186;51.394;5.454;2022-10-31T18:28:42;13.50;;;13.10;;
26820;SDS011;37186;51.394;5.454;2022-10-31T18:31:42;14.15;;;13.75;;
26820;SDS011;37186;51.394;5.454;2022-10-31T18:34:47;13.55;;;13.15;;
26820;SDS011;37186;51.394;5.454;2022-10-31T18:37:47;13.52;;;13.13;;
26820;SDS011;37186;51.394;5.454;2022-10-31T18:40:49;13.13;;;12.73;;
26820;SDS011;37186;51.394;5.454;2022-10-31T18:43:50;12.63;;;12.23;;
26820;SDS011;37186;51.394;5.454;2022-10-31T18:46:52;13.77;;;13.38;;
26820;SDS011;37186;51.394;5.454;2022-10-31T18:49:53;13.02;;;12.63;;
26820;SDS011;37186;51.394;5.454;2022-10-31T18:52:54;14.00;;;13.60;;
26820;SDS011;37186;51.394;5.454;2022-10-31T18:55:55;13.10;;;12.70;;
26820;SDS011;37186;51.394;5.454;2022-10-31T18:58:57;13.68;;;13.27;;
26820;SDS011;37186;51.394;5.454;2022-10-31T19:02:01;13.75;;;13.35;;
26820;SDS011;37186;51.394;5.454;2022-10-31T19:05:01;13.23;;;12.82;;
26820;SDS011;37186;51.394;5.454;2022-10-31T19:08:02;12.88;;;12.48;;
26820;SDS011;37186;51.394;5.454;2022-10-31T19:11:12;13.35;;;12.95;;
26820;SDS011;37186;51.394;5.454;2022-10-31T19:14:13;13.90;;;13.50;;
26820;SDS011;37186;51.394;5.454;2022-10-31T19:17:14;13.05;;;12.65;;
26820;SDS011;37186;51.394;5.454;2022-10-31T19:20:15;13.70;;;13.30;;
26820;SDS011;37186;51.394;5.454;2022-10-31T19:23:15;13.52;;;13.13;;
26820;SDS011;37186;51.394;5.454;2022-10-31T19:26:16;13.60;;;13.20;;
26820;SDS011;37186;51.394;5.454;2022-10-31T19:29:16;12.95;;;12.55;;
26820;SDS011;37186;51.394;5.454;2022-10-31T19:32:17;14.32;;;13.93;;
26820;SDS011;37186;51.394;5.454;2022-10-31T19:35:18;14.20;;;13.80;;
26820;SDS011;37186;51.394;5.454;2022-10-31T19:38:18;12.88;;;12.48;;
26820;SDS011;37186;51.394;5.454;2022-10-31T19:41:25;14.35;;;13.95;;
26820;SDS011;37186;51.394;5.454;2022-10-31T19:44:27;13.88;;;13.48;;
26820;SDS011;37186;51.394;5.454;2022-10-31T19:47:30;13.73;;;13.32;;
26820;SDS011;37186;51.394;5.454;2022-10-31T19:50:32;14.88;;;14.43;;
26820;SDS011;37186;51.394;5.454;2022-10-31T19:53:32;14.32;;;13.93;;